Terminal Aerodrome Forecast
Issued by NWS Indianapolis, IN

Home | Current Version | Previous Version | Text Only | Print | Product List | Glossary On
Versions: 1 2 3 4 5 6 7 8 9 10 11 12 13 14 15 16 17 18 19 20 21 22 23 24 25 26
582
FTUS43 KIND 090820 AAA
TAFIND
TAF AMD
KIND 090820Z 0908/1012 28011KT 6SM -SHSN BKN010 OVC025
     FM091400 28014G22KT 3SM -SHSN BR SCT012 OVC018
     FM100100 29012G20KT 5SM -SHSN SCT012 OVC020
     FM100800 29012G20KT 6SM -SHSN BKN025 OVC040=

USA.gov is the U.S. government's official web portal to all federal, state and local government web resources and services.